createdAt,value
2023-02-25T00:00:19.296Z,12.07
2023-02-25T00:03:04.502Z,6.18
2023-02-25T00:05:49.694Z,8.05
2023-02-25T00:08:35.875Z,7.68
2023-02-25T00:11:23.026Z,7.70
2023-02-25T00:14:10.031Z,5.93
2023-02-25T00:16:56.245Z,7.82
2023-02-25T00:19:43.020Z,8.55
2023-02-25T00:22:28.416Z,10.05
2023-02-25T00:25:16.769Z,9.40
2023-02-25T00:28:06.050Z,14.68
2023-02-25T00:30:52.627Z,10.10
2023-02-25T00:33:41.711Z,14.68
2023-02-25T00:36:27.793Z,10.60
2023-02-25T00:39:13.257Z,12.02
2023-02-25T00:41:58.502Z,13.38
2023-02-25T00:44:48.550Z,18.33
2023-02-25T00:47:33.843Z,22.08
2023-02-25T00:50:19.272Z,14.45
2023-02-25T00:53:04.969Z,18.45
2023-02-25T00:55:59.028Z,17.48
2023-02-25T00:58:46.142Z,20.40
2023-02-25T01:01:39.036Z,19.25
2023-02-25T01:04:25.177Z,21.65
2023-02-25T01:07:11.256Z,17.08
2023-02-25T01:09:57.072Z,15.30
2023-02-25T01:12:42.124Z,17.25
2023-02-25T01:15:30.602Z,21.23
2023-02-25T01:18:20.575Z,9.85
2023-02-25T01:21:06.677Z,21.95
2023-02-25T01:24:00.166Z,19.42
2023-02-25T01:26:46.458Z,13.90
2023-02-25T01:29:34.796Z,15.23
2023-02-25T01:32:21.075Z,18.88
2023-02-25T01:35:07.016Z,14.65
2023-02-25T01:37:52.948Z,15.50
2023-02-25T01:40:38.354Z,24.08
2023-02-25T01:43:23.659Z,15.18
2023-02-25T01:46:09.271Z,14.90
2023-02-25T01:48:55.748Z,14.30
2023-02-25T01:51:42.249Z,15.48
2023-02-25T01:54:28.277Z,18.63
2023-02-25T01:57:17.060Z,18.17
2023-02-25T02:00:10.549Z,16.00
2023-02-25T02:02:59.289Z,14.45
2023-02-25T02:06:07.292Z,12.93
2023-02-25T02:08:52.515Z,16.05
2023-02-25T02:11:38.172Z,17.48
2023-02-25T02:14:29.713Z,19.98
2023-02-25T02:17:30.043Z,19.88
2023-02-25T02:20:20.543Z,16.10
2023-02-25T02:23:46.180Z,17.25
2023-02-25T02:26:41.240Z,22.70
2023-02-25T02:29:41.939Z,12.90
2023-02-25T02:32:39.727Z,18.00
2023-02-25T02:36:01.572Z,12.23
2023-02-25T02:38:54.388Z,21.25
2023-02-25T02:41:55.906Z,26.25
2023-02-25T02:45:02.864Z,21.13
2023-02-25T02:48:02.231Z,13.85
2023-02-25T02:51:14.464Z,18.35
2023-02-25T02:54:03.326Z,18.48
2023-02-25T02:56:52.870Z,18.73
2023-02-25T02:59:47.431Z,18.75
2023-02-25T03:02:38.362Z,15.88
2023-02-25T03:05:26.627Z,15.93
2023-02-25T03:08:24.724Z,14.38
2023-02-25T03:11:11.002Z,14.90
2023-02-25T03:13:56.754Z,11.48
2023-02-25T03:17:05.317Z,15.25
2023-02-25T03:20:10.248Z,16.83
2023-02-25T03:23:01.155Z,15.07
2023-02-25T03:25:51.354Z,15.43
2023-02-25T03:28:39.451Z,13.52
2023-02-25T03:31:45.764Z,14.52
2023-02-25T03:34:43.064Z,17.77
2023-02-25T03:37:31.404Z,17.42
2023-02-25T03:40:19.627Z,14.25
2023-02-25T03:43:13.428Z,17.65
2023-02-25T03:45:59.609Z,15.07
2023-02-25T03:48:47.190Z,17.33
2023-02-25T03:51:35.766Z,10.27
2023-02-25T03:54:21.487Z,21.92
2023-02-25T03:57:08.127Z,19.00
2023-02-25T03:59:57.664Z,17.23
2023-02-25T04:02:44.576Z,15.40
2023-02-25T04:05:29.981Z,11.35
2023-02-25T04:08:16.031Z,11.57
2023-02-25T04:11:03.258Z,16.38
2023-02-25T04:13:48.741Z,15.70
2023-02-25T04:16:34.899Z,8.98
2023-02-25T04:19:21.583Z,11.52
2023-02-25T04:22:08.252Z,15.75
2023-02-25T04:24:53.672Z,6.18
2023-02-25T04:27:40.004Z,11.25
2023-02-25T04:30:26.074Z,11.18
2023-02-25T04:33:11.862Z,13.43
2023-02-25T04:35:57.181Z,15.35
2023-02-25T04:38:42.478Z,11.30
2023-02-25T04:41:34.134Z,11.98
2023-02-25T04:44:20.059Z,12.90
2023-02-25T04:47:05.715Z,17.75
2023-02-25T04:49:51.138Z,15.50
2023-02-25T04:52:37.222Z,16.73
2023-02-25T04:55:22.640Z,13.82
2023-02-25T04:58:08.202Z,9.75
2023-02-25T05:00:57.533Z,16.60
2023-02-25T05:03:42.859Z,14.82
2023-02-25T05:06:28.420Z,15.40
2023-02-25T05:09:13.712Z,14.68
2023-02-25T05:11:59.142Z,17.92
2023-02-25T05:14:44.561Z,16.95
2023-02-25T05:17:29.982Z,19.45
2023-02-25T05:20:15.528Z,14.25
2023-02-25T05:23:00.605Z,16.90
2023-02-25T05:25:46.299Z,10.77
2023-02-25T05:28:32.112Z,12.30
2023-02-25T05:31:17.612Z,16.77
2023-02-25T05:34:03.490Z,19.17
2023-02-25T05:36:48.981Z,15.15
2023-02-25T05:39:34.390Z,13.88
2023-02-25T05:42:19.965Z,12.23
2023-02-25T05:45:07.223Z,16.45
2023-02-25T05:47:52.843Z,17.35
2023-02-25T05:50:41.128Z,9.82
2023-02-25T05:53:26.949Z,16.20
2023-02-25T05:56:14.629Z,13.25
2023-02-25T05:59:00.358Z,13.30
2023-02-25T06:01:45.645Z,13.30
2023-02-25T06:04:31.117Z,15.23
2023-02-25T06:07:16.362Z,15.27
2023-02-25T06:10:02.253Z,14.13
2023-02-25T06:12:47.523Z,19.38
2023-02-25T06:15:33.137Z,11.95
2023-02-25T06:18:18.521Z,17.52
2023-02-25T06:21:06.617Z,14.77
2023-02-25T06:23:52.311Z,22.65
2023-02-25T06:26:42.609Z,18.73
2023-02-25T06:29:28.178Z,26.75
2023-02-25T06:32:13.817Z,21.05
2023-02-25T06:34:59.280Z,16.92
2023-02-25T06:37:44.738Z,16.63
2023-02-25T06:40:30.033Z,25.20
2023-02-25T06:43:18.874Z,19.55
2023-02-25T06:46:05.916Z,13.82
2023-02-25T06:48:51.911Z,15.88
2023-02-25T06:51:37.054Z,15.82
2023-02-25T06:54:22.308Z,18.60
2023-02-25T06:57:07.899Z,17.30
2023-02-25T06:59:53.500Z,18.08
2023-02-25T07:02:38.883Z,17.85
2023-02-25T07:05:24.304Z,10.63
2023-02-25T07:08:09.583Z,13.60
2023-02-25T07:10:55.016Z,16.98
2023-02-25T07:13:43.214Z,14.38
2023-02-25T07:16:30.010Z,15.70
2023-02-25T07:19:16.489Z,19.83
2023-02-25T07:22:02.117Z,18.35
2023-02-25T07:24:47.686Z,17.00
2023-02-25T07:27:33.142Z,19.15
2023-02-25T07:30:18.906Z,18.60
2023-02-25T07:33:06.013Z,15.65
2023-02-25T07:35:54.749Z,15.85
2023-02-25T07:38:40.487Z,15.75
2023-02-25T07:41:26.100Z,17.63
2023-02-25T07:44:11.697Z,19.88
2023-02-25T07:46:56.728Z,13.85
2023-02-25T07:49:42.137Z,22.15
2023-02-25T07:52:27.940Z,17.45
2023-02-25T07:55:13.428Z,20.58
2023-02-25T07:57:58.895Z,21.17
2023-02-25T08:00:46.264Z,13.18
2023-02-25T08:03:31.371Z,15.50
2023-02-25T08:06:17.678Z,19.95
2023-02-25T08:09:03.156Z,15.20
2023-02-25T08:11:48.665Z,13.15
2023-02-25T08:14:34.125Z,11.20
2023-02-25T08:17:19.807Z,9.80
2023-02-25T08:20:06.007Z,9.60
2023-02-25T08:22:51.056Z,13.40
2023-02-25T08:25:36.527Z,10.13
2023-02-25T08:28:26.099Z,30.80
2023-02-25T08:31:12.407Z,14.93
2023-02-25T08:33:59.371Z,10.40
2023-02-25T08:36:44.880Z,7.75
2023-02-25T08:39:31.103Z,8.88
2023-02-25T08:42:18.890Z,9.75
2023-02-25T08:45:04.970Z,7.28
2023-02-25T08:47:50.178Z,6.18
2023-02-25T08:50:35.911Z,6.88
2023-02-25T08:53:22.592Z,7.05
2023-02-25T08:56:13.225Z,5.93
2023-02-25T08:58:58.927Z,9.40
2023-02-25T09:01:45.124Z,6.95
2023-02-25T09:04:30.921Z,11.63
2023-02-25T09:07:16.444Z,7.97
2023-02-25T09:10:03.361Z,6.97
2023-02-25T09:12:49.723Z,9.07
2023-02-25T09:15:35.018Z,8.40
2023-02-25T09:18:20.534Z,8.75
2023-02-25T09:21:07.185Z,11.07
2023-02-25T09:23:52.549Z,7.47
2023-02-25T09:26:38.153Z,10.82
2023-02-25T09:29:23.690Z,6.85
2023-02-25T09:32:16.509Z,11.10
2023-02-25T09:35:02.802Z,10.73
2023-02-25T09:37:47.940Z,3.92
2023-02-25T09:40:33.491Z,3.63
2023-02-25T09:43:28.496Z,4.68
2023-02-25T09:46:19.074Z,4.65
2023-02-25T09:49:15.253Z,6.85
2023-02-25T09:52:18.456Z,5.75
2023-02-25T09:58:11.619Z,6.07
2023-02-25T10:01:30.014Z,5.15
2023-02-25T10:04:37.698Z,4.53
2023-02-25T10:07:29.829Z,5.85
2023-02-25T10:10:38.913Z,5.22
2023-02-25T10:13:50.673Z,5.75
2023-02-25T10:17:00.933Z,6.95
2023-02-25T10:20:18.637Z,6.10
2023-02-25T10:23:36.208Z,5.95
2023-02-25T10:26:38.977Z,3.83
2023-02-25T10:32:39.438Z,5.65
2023-02-25T10:35:29.008Z,7.50
2023-02-25T10:38:14.807Z,7.57
2023-02-25T10:41:00.551Z,12.07
2023-02-25T10:43:46.260Z,9.32
2023-02-25T10:46:59.091Z,12.35
2023-02-25T10:50:12.739Z,8.82
2023-02-25T10:53:12.947Z,9.52
2023-02-25T10:55:59.381Z,9.43
2023-02-25T10:59:00.638Z,10.50
2023-02-25T11:01:48.062Z,8.80
2023-02-25T11:04:39.482Z,6.15
2023-02-25T11:07:41.366Z,7.45
2023-02-25T11:10:26.972Z,6.47
2023-02-25T11:13:28.673Z,6.57
2023-02-25T11:16:14.708Z,6.55
2023-02-25T11:19:04.555Z,9.13
2023-02-25T11:21:51.096Z,7.00
2023-02-25T11:24:38.679Z,5.82
2023-02-25T11:27:41.822Z,10.40
2023-02-25T11:30:38.656Z,6.95
2023-02-25T11:33:32.962Z,4.85
2023-02-25T11:36:24.140Z,8.48
2023-02-25T11:39:16.167Z,7.13
2023-02-25T11:42:24.320Z,7.78
2023-02-25T11:45:18.334Z,6.43
2023-02-25T11:48:06.737Z,3.88
2023-02-25T11:51:02.042Z,6.53
2023-02-25T11:54:17.374Z,6.05
2023-02-25T11:57:26.298Z,5.53
2023-02-25T12:00:20.490Z,5.97
2023-02-25T12:03:35.183Z,8.77
2023-02-25T12:06:32.765Z,4.10
2023-02-25T12:09:18.456Z,7.10
2023-02-25T12:12:12.623Z,5.10
2023-02-25T12:15:06.781Z,5.85
2023-02-25T12:18:19.711Z,8.38
2023-02-25T12:21:19.749Z,5.72
2023-02-25T12:24:17.533Z,8.75
2023-02-25T12:27:38.736Z,12.38
2023-02-25T12:30:45.400Z,10.57
2023-02-25T12:33:48.781Z,10.70
2023-02-25T12:36:54.263Z,7.05
2023-02-25T12:39:53.737Z,7.55
2023-02-25T12:43:13.669Z,11.80
2023-02-25T12:46:14.400Z,8.25
2023-02-25T12:49:08.942Z,9.50
2023-02-25T12:52:26.326Z,10.32
2023-02-25T12:55:39.634Z,7.38
2023-02-25T12:58:43.042Z,7.65
2023-02-25T13:01:51.730Z,6.13
2023-02-25T13:04:55.763Z,9.30
2023-02-25T13:08:25.352Z,6.57
2023-02-25T13:12:11.103Z,8.95
2023-02-25T13:15:20.870Z,8.02
2023-02-25T13:18:48.389Z,7.63
2023-02-25T13:21:59.004Z,7.22
2023-02-25T13:24:48.947Z,7.97
2023-02-25T13:28:01.984Z,11.73
2023-02-25T13:30:57.945Z,6.03
2023-02-25T13:34:03.482Z,14.27
2023-02-25T13:37:05.278Z,7.93
2023-02-25T13:40:05.234Z,8.13
2023-02-25T13:43:12.972Z,7.28
2023-02-25T13:46:32.649Z,11.27
2023-02-25T13:49:39.872Z,7.15
2023-02-25T13:52:32.264Z,12.05
2023-02-25T13:58:45.469Z,11.02
2023-02-25T14:01:47.154Z,12.15
2023-02-25T14:04:50.829Z,8.15
2023-02-25T14:07:58.547Z,6.63
2023-02-25T14:10:54.792Z,6.10
2023-02-25T14:14:00.604Z,10.88
2023-02-25T14:16:55.071Z,11.60
2023-02-25T14:20:00.888Z,8.05
2023-02-25T14:22:55.615Z,5.68
2023-02-25T14:25:55.956Z,10.68
2023-02-25T14:28:53.350Z,8.15
2023-02-25T14:31:47.004Z,6.80
2023-02-25T14:34:56.181Z,6.85
2023-02-25T14:38:07.887Z,7.25
2023-02-25T14:41:12.661Z,8.68
2023-02-25T14:44:03.885Z,5.50
2023-02-25T14:47:01.621Z,7.45
2023-02-25T14:50:03.182Z,6.88
2023-02-25T14:53:20.436Z,5.78
2023-02-25T14:56:37.882Z,7.57
2023-02-25T14:59:56.742Z,6.28
2023-02-25T15:02:53.470Z,7.93
2023-02-25T15:06:10.598Z,8.48
2023-02-25T15:09:01.645Z,7.00
2023-02-25T15:12:11.317Z,5.88
2023-02-25T15:15:11.849Z,6.25
2023-02-25T15:18:19.307Z,7.53
2023-02-25T15:21:35.165Z,10.05
2023-02-25T15:24:23.666Z,5.38
2023-02-25T15:27:32.402Z,6.38
2023-02-25T15:30:23.038Z,8.82
2023-02-25T15:33:33.653Z,7.57
2023-02-25T15:36:24.495Z,8.57
2023-02-25T15:39:10.481Z,7.05
2023-02-25T15:42:03.714Z,7.47
2023-02-25T15:44:49.441Z,6.70
2023-02-25T15:47:35.002Z,7.00
2023-02-25T15:50:41.891Z,8.25
2023-02-25T15:53:29.118Z,7.63
2023-02-25T15:56:15.548Z,5.10
2023-02-25T15:59:01.181Z,7.43
2023-02-25T16:01:48.298Z,9.30
2023-02-25T16:04:50.164Z,5.32
2023-02-25T16:07:42.325Z,6.75
2023-02-25T16:10:39.978Z,8.10
2023-02-25T16:13:34.205Z,7.40
2023-02-25T16:16:21.670Z,8.07
2023-02-25T16:19:11.026Z,6.20
2023-02-25T16:22:00.688Z,7.93
2023-02-25T16:24:52.680Z,8.77
2023-02-25T16:27:56.533Z,8.07
2023-02-25T16:30:51.038Z,6.93
2023-02-25T16:33:49.477Z,4.53
2023-02-25T16:37:16.742Z,8.85
2023-02-25T16:40:02.847Z,9.63
2023-02-25T16:42:48.407Z,5.72
2023-02-25T16:45:39.133Z,7.95
2023-02-25T16:48:50.094Z,7.25
2023-02-25T16:51:45.061Z,4.05
2023-02-25T16:54:37.964Z,7.80
2023-02-25T16:57:24.723Z,6.85
2023-02-25T17:00:15.398Z,6.00
2023-02-25T17:03:04.411Z,8.43
2023-02-25T17:06:06.822Z,6.50
2023-02-25T17:08:52.631Z,6.40
2023-02-25T17:11:38.323Z,7.60
2023-02-25T17:14:24.849Z,8.43
2023-02-25T17:17:17.740Z,7.70
2023-02-25T17:20:07.061Z,10.27
2023-02-25T17:22:53.074Z,7.10
2023-02-25T17:25:45.845Z,5.82
2023-02-25T17:28:33.017Z,7.05
2023-02-25T17:31:21.536Z,8.82
2023-02-25T17:34:16.298Z,9.05
2023-02-25T17:37:06.004Z,7.15
2023-02-25T17:39:52.154Z,8.48
2023-02-25T17:42:41.245Z,7.30
2023-02-25T17:45:38.604Z,11.75
2023-02-25T17:48:31.079Z,7.65
2023-02-25T17:51:16.651Z,8.40
2023-02-25T17:54:08.556Z,8.00
2023-02-25T17:56:58.352Z,5.50
2023-02-25T17:59:51.699Z,8.02
2023-02-25T18:02:46.286Z,8.45
2023-02-25T18:05:32.172Z,9.38
2023-02-25T18:08:20.547Z,5.43
2023-02-25T18:11:30.916Z,7.75
2023-02-25T18:14:38.245Z,6.32
2023-02-25T18:17:29.251Z,7.00
2023-02-25T18:20:36.213Z,9.20
2023-02-25T18:23:25.152Z,8.52
2023-02-25T18:26:20.919Z,7.53
2023-02-25T18:29:09.976Z,6.13
2023-02-25T18:31:55.322Z,9.52
2023-02-25T18:34:40.810Z,10.23
2023-02-25T18:37:31.847Z,6.38
2023-02-25T18:40:25.187Z,6.15
2023-02-25T18:43:16.117Z,7.45
2023-02-25T18:46:01.960Z,5.50
2023-02-25T18:48:47.591Z,6.65
2023-02-25T18:51:33.053Z,6.00
2023-02-25T18:54:19.651Z,5.43
2023-02-25T18:57:16.163Z,4.22
2023-02-25T19:00:01.565Z,7.70
2023-02-25T19:02:59.120Z,4.05
2023-02-25T19:05:44.909Z,9.93
2023-02-25T19:08:30.335Z,6.03
2023-02-25T19:11:29.672Z,7.68
2023-02-25T19:14:19.595Z,6.63
2023-02-25T19:17:04.690Z,9.55
2023-02-25T19:19:50.238Z,10.93
2023-02-25T19:22:45.393Z,6.15
2023-02-25T19:25:35.964Z,8.02
2023-02-25T19:28:21.805Z,8.05
2023-02-25T19:31:08.583Z,4.65
2023-02-25T19:33:54.138Z,5.68
2023-02-25T19:36:40.010Z,8.20
2023-02-25T19:39:25.501Z,6.53
2023-02-25T19:42:11.582Z,6.47
2023-02-25T19:44:57.241Z,5.63
2023-02-25T19:47:43.166Z,6.97
2023-02-25T19:50:31.287Z,5.88
2023-02-25T19:53:16.570Z,5.63
2023-02-25T19:56:03.221Z,6.55
2023-02-25T19:58:48.858Z,7.57
2023-02-25T20:01:34.285Z,6.10
2023-02-25T20:04:19.859Z,9.13
2023-02-25T20:07:05.249Z,5.55
2023-02-25T20:09:51.025Z,7.65
2023-02-25T20:12:37.266Z,6.05
2023-02-25T20:15:22.572Z,7.35
2023-02-25T20:18:08.043Z,7.00
2023-02-25T20:20:54.037Z,4.32
2023-02-25T20:23:39.944Z,7.05
2023-02-25T20:26:28.765Z,5.95
2023-02-25T20:29:14.535Z,4.47
2023-02-25T20:32:00.478Z,6.60
2023-02-25T20:34:45.946Z,6.82
2023-02-25T20:37:37.103Z,8.50
2023-02-25T20:40:22.289Z,7.05
2023-02-25T20:43:09.777Z,5.90
2023-02-25T20:45:56.409Z,7.47
2023-02-25T20:48:41.800Z,8.40
2023-02-25T20:51:27.922Z,5.07
2023-02-25T20:54:15.849Z,6.60
2023-02-25T20:57:02.186Z,6.13
2023-02-25T20:59:48.640Z,6.05
2023-02-25T21:02:33.983Z,7.68
2023-02-25T21:05:19.454Z,8.35
2023-02-25T21:08:06.851Z,7.55
2023-02-25T21:10:52.079Z,5.22
2023-02-25T21:13:37.467Z,6.05
2023-02-25T21:16:24.427Z,6.93
2023-02-25T21:19:09.876Z,7.20
2023-02-25T21:21:55.622Z,11.35
2023-02-25T21:24:41.406Z,4.80
2023-02-25T21:27:28.916Z,6.25
2023-02-25T21:30:14.401Z,4.07
2023-02-25T21:32:59.764Z,6.15
2023-02-25T21:35:50.977Z,6.38
2023-02-25T21:38:37.790Z,6.00
2023-02-25T21:41:23.602Z,5.80
2023-02-25T21:44:09.806Z,3.60
2023-02-25T21:46:55.437Z,5.43
2023-02-25T21:49:40.873Z,3.83
2023-02-25T21:52:26.069Z,4.10
2023-02-25T21:55:11.622Z,6.25
2023-02-25T21:57:56.982Z,8.57
2023-02-25T22:00:43.386Z,6.55
2023-02-25T22:03:28.547Z,7.07
2023-02-25T22:06:14.772Z,6.50
2023-02-25T22:09:00.815Z,9.07
2023-02-25T22:11:46.850Z,4.60
2023-02-25T22:14:32.381Z,5.10
2023-02-25T22:17:18.136Z,5.28
2023-02-25T22:20:05.597Z,5.20
2023-02-25T22:22:50.769Z,7.47
2023-02-25T22:25:36.325Z,6.97
2023-02-25T22:28:21.801Z,8.18
2023-02-25T22:31:11.123Z,7.15
2023-02-25T22:33:57.139Z,5.45
2023-02-25T22:36:42.764Z,7.45
2023-02-25T22:39:28.368Z,6.88
2023-02-25T22:42:13.682Z,8.60
2023-02-25T22:44:59.264Z,4.72
2023-02-25T22:47:44.556Z,7.85
2023-02-25T22:50:30.114Z,7.10
2023-02-25T22:53:16.807Z,6.75
2023-02-25T22:56:03.649Z,4.68
2023-02-25T22:58:49.444Z,5.63
2023-02-25T23:01:35.040Z,6.57
2023-02-25T23:04:20.611Z,5.93
2023-02-25T23:07:05.875Z,6.00
2023-02-25T23:09:51.299Z,7.47
2023-02-25T23:12:36.766Z,5.70
2023-02-25T23:15:22.250Z,4.63
2023-02-25T23:18:08.950Z,8.90
2023-02-25T23:20:54.194Z,6.65
2023-02-25T23:23:39.741Z,3.92
2023-02-25T23:26:27.736Z,10.05
2023-02-25T23:29:13.127Z,6.05
2023-02-25T23:31:58.701Z,7.82
2023-02-25T23:34:44.106Z,7.55
2023-02-25T23:37:31.075Z,10.30
2023-02-25T23:40:16.876Z,6.20
2023-02-25T23:43:02.082Z,4.50
2023-02-25T23:45:47.557Z,9.25
2023-02-25T23:48:32.914Z,7.97
2023-02-25T23:51:18.526Z,4.18
2023-02-25T23:54:05.742Z,6.30
2023-02-25T23:56:51.199Z,4.93
2023-02-25T23:59:36.329Z,4.50
